Time;durP1;ratioP1;P1;durP2;ratioP2;P2;SDS_P1;SDS_P2;PMS_P1;PMS_P2;Temp;Humidity;BMP_temperature;BMP_pressure;BME280_temperature;BME280_humidity;BME280_pressure;Samples;Min_cycle;Max_cycle;Signal;HPM_P1;HPM_P2
2023/02/23 00:00:19;;;;;;;54.03;43.30;;;;;;;7.74;100.00;100400.13;694165;28;982;-65
2023/02/23 00:00:43;;;;;;;53.30;43.88;;;;;;;7.75;100.00;100399.22;692868;28;4294;-65
2023/02/23 00:01:21;;;;;;;53.92;43.78;;;;;;;7.74;100.00;100397.50;694879;28;1005;-65
2023/02/23 00:01:41;;;;;;;53.40;43.38;;;;;;;7.77;100.00;100399.25;694596;28;812;-65
2023/02/23 00:02:03;;;;;;;54.40;43.03;;;;;;;7.78;100.00;100404.47;693993;28;1910;-65
2023/02/23 00:02:24;;;;;;;52.78;42.22;;;;;;;7.78;100.00;100401.88;692159;28;1033;-65
2023/02/23 00:02:44;;;;;;;49.57;40.20;;;;;;;7.77;100.00;100400.13;691625;28;971;-64
2023/02/23 00:03:04;;;;;;;48.93;39.67;;;;;;;7.77;100.00;100402.72;687934;28;1326;-65
2023/02/23 00:03:25;;;;;;;48.88;40.42;;;;;;;7.78;100.00;100400.97;688860;28;896;-65
2023/02/23 00:03:45;;;;;;;49.83;40.67;;;;;;;7.77;100.00;100404.47;688795;28;4314;-65
2023/02/23 00:04:07;;;;;;;48.95;39.92;;;;;;;7.76;100.00;100405.31;690098;28;988;-65
2023/02/23 00:04:28;;;;;;;47.55;39.65;;;;;;;7.75;100.00;100401.84;693815;28;1003;-65
2023/02/23 00:04:48;;;;;;;48.60;40.15;;;;;;;7.75;100.00;100407.03;696161;28;979;-65
2023/02/23 00:05:08;;;;;;;50.37;41.00;;;;;;;7.74;100.00;100407.03;695620;28;924;-65
2023/02/23 00:05:34;;;;;;;50.10;40.63;;;;;;;7.75;100.00;100401.84;691548;28;2088;-65
2023/02/23 00:05:54;;;;;;;49.30;40.55;;;;;;;7.79;100.00;100398.38;693528;28;1168;-66
2023/02/23 00:06:17;;;;;;;48.10;40.30;;;;;;;7.84;100.00;100403.59;694210;28;1271;-65
2023/02/23 00:06:37;;;;;;;51.95;41.97;;;;;;;7.82;100.00;100408.81;691347;28;4807;-65
2023/02/23 00:06:58;;;;;;;52.33;41.83;;;;;;;7.81;100.00;100412.28;695010;28;954;-65
2023/02/23 00:07:19;;;;;;;49.70;41.13;;;;;;;7.79;100.00;100403.56;694754;28;1218;-65
2023/02/23 00:07:42;;;;;;;48.25;39.50;;;;;;;7.79;100.00;100406.19;693961;28;1382;-65
2023/02/23 00:08:03;;;;;;;46.65;39.33;;;;;;;7.79;100.00;100406.19;695837;28;936;-65
2023/02/23 00:08:27;;;;;;;49.25;40.20;;;;;;;7.80;100.00;100407.06;694349;28;817;-65
2023/02/23 00:08:47;;;;;;;51.22;40.58;;;;;;;7.79;100.00;100406.19;693442;28;1991;-65
2023/02/23 00:09:21;;;;;;;51.43;41.13;;;;;;;7.80;100.00;100407.91;693374;28;1183;-66
2023/02/23 00:09:41;;;;;;;49.17;41.15;;;;;;;7.81;100.00;100406.22;692553;28;4438;-65
2023/02/23 00:10:02;;;;;;;48.20;40.90;;;;;;;7.80;100.00;100410.53;694166;28;1335;-65
2023/02/23 00:10:29;;;;;;;48.97;40.72;;;;;;;7.80;100.00;100412.28;694200;28;1002;-65
2023/02/23 00:10:57;;;;;;;50.83;42.33;;;;;;;7.79;100.00;100407.91;692225;28;844;-65
2023/02/23 00:11:18;;;;;;;50.42;40.65;;;;;;;7.77;100.00;100407.06;690100;28;851;-65
2023/02/23 00:11:39;;;;;;;51.95;41.38;;;;;;;7.75;100.00;100409.63;690417;28;880;-65
2023/02/23 00:12:06;;;;;;;52.03;42.77;;;;;;;7.73;100.00;100402.72;691539;28;1271;-65
2023/02/23 00:12:27;;;;;;;53.72;42.55;;;;;;;7.72;100.00;100408.78;691257;28;939;-65
2023/02/23 00:12:50;;;;;;;53.58;43.35;;;;;;;7.73;100.00;100411.38;690893;28;4406;-65
2023/02/23 00:13:10;;;;;;;53.53;42.47;;;;;;;7.74;100.00;100410.53;690363;28;1079;-65
2023/02/23 00:13:34;;;;;;;54.27;42.57;;;;;;;7.76;100.00;100413.97;691605;28;1049;-65
2023/02/23 00:13:55;;;;;;;50.33;42.28;;;;;;;7.77;100.00;100410.53;690111;28;1030;-65
2023/02/23 00:14:16;;;;;;;50.80;41.97;;;;;;;7.76;100.00;100411.38;692089;28;1244;-65
2023/02/23 00:14:37;;;;;;;52.28;42.13;;;;;;;7.78;100.00;100411.38;692607;28;1265;-65
2023/02/23 00:14:58;;;;;;;52.22;41.50;;;;;;;7.78;100.00;100409.66;692541;28;1528;-65
2023/02/23 00:15:18;;;;;;;51.78;41.33;;;;;;;7.78;100.00;100401.88;692018;28;1263;-65
2023/02/23 00:15:39;;;;;;;53.08;42.08;;;;;;;7.77;100.00;100404.47;691846;28;4268;-65
2023/02/23 00:16:11;;;;;;;52.53;41.73;;;;;;;7.77;100.00;100402.72;692226;28;879;-65
2023/02/23 00:16:31;;;;;;;49.95;40.53;;;;;;;7.77;100.00;100404.47;692565;28;1408;-65
2023/02/23 00:16:53;;;;;;;51.50;41.42;;;;;;;7.75;100.00;100406.19;690250;28;1239;-65
2023/02/23 00:17:16;;;;;;;49.33;40.45;;;;;;;7.75;100.00;100407.03;693123;28;1369;-65
2023/02/23 00:17:36;;;;;;;47.15;39.42;;;;;;;7.73;100.00;100405.31;692160;28;1473;-65
2023/02/23 00:17:57;;;;;;;48.27;39.77;;;;;;;7.71;100.00;100400.09;691343;28;1466;-65
2023/02/23 00:18:19;;;;;;;49.22;40.47;;;;;;;7.70;100.00;100402.69;691769;28;1508;-65
2023/02/23 00:18:53;;;;;;;50.42;40.83;;;;;;;7.70;100.00;100408.78;690924;28;4330;-65
2023/02/23 00:19:13;;;;;;;50.17;40.10;;;;;;;7.67;100.00;100403.56;691632;28;1247;-65
2023/02/23 00:19:36;;;;;;;50.43;40.30;;;;;;;7.66;100.00;100401.81;691153;28;1307;-65
2023/02/23 00:19:57;;;;;;;51.78;41.60;;;;;;;7.71;100.00;100409.63;692409;28;1030;-65
2023/02/23 00:20:24;;;;;;;52.85;41.90;;;;;;;7.74;100.00;100407.91;690750;28;1453;-65
2023/02/23 00:20:47;;;;;;;51.97;42.13;;;;;;;7.75;100.00;100407.03;690438;28;1224;-65
2023/02/23 00:21:07;;;;;;;52.38;40.85;;;;;;;7.77;100.00;100405.31;690472;28;1084;-66
2023/02/23 00:21:33;;;;;;;50.60;40.50;;;;;;;7.76;100.00;100406.19;690824;28;1240;-65
2023/02/23 00:21:57;;;;;;;49.40;41.22;;;;;;;7.75;100.00;100406.19;687726;28;4274;-65
2023/02/23 00:22:17;;;;;;;50.55;41.10;;;;;;;7.73;100.00;100400.97;689423;28;1436;-65
2023/02/23 00:22:39;;;;;;;49.27;40.73;;;;;;;7.74;100.00;100400.13;691204;28;1185;-65
2023/02/23 00:22:59;;;;;;;51.60;41.03;;;;;;;7.74;100.00;100401.84;689836;28;3752;-65
2023/02/23 00:23:19;;;;;;;50.90;40.43;;;;;;;7.74;100.00;100402.72;690847;28;1247;-66
2023/02/23 00:23:42;;;;;;;48.00;40.73;;;;;;;7.73;100.00;100403.56;690763;28;1235;-65
2023/02/23 00:24:05;;;;;;;51.35;41.88;;;;;;;7.73;100.00;100403.56;693185;28;1185;-65
2023/02/23 00:24:25;;;;;;;51.78;41.05;;;;;;;7.72;100.00;100411.38;690574;28;1152;-65
2023/02/23 00:24:46;;;;;;;52.00;40.80;;;;;;;7.72;100.00;100406.19;690292;28;5202;-66
2023/02/23 00:25:09;;;;;;;50.45;40.63;;;;;;;7.71;100.00;100400.09;690435;28;1241;-65
2023/02/23 00:25:29;;;;;;;52.28;42.05;;;;;;;7.71;100.00;100400.09;690952;28;1104;-65
2023/02/23 00:25:50;;;;;;;51.23;42.40;;;;;;;7.70;100.00;100400.97;689588;28;1314;-65
2023/02/23 00:26:12;;;;;;;51.35;42.22;;;;;;;7.71;100.00;100409.63;688358;28;1448;-65
2023/02/23 00:26:34;;;;;;;52.17;42.40;;;;;;;7.71;100.00;100405.28;692563;28;1350;-65
2023/02/23 00:26:54;;;;;;;51.97;43.00;;;;;;;7.73;100.00;100405.31;691788;28;1389;-65
2023/02/23 00:27:19;;;;;;;55.37;42.60;;;;;;;7.73;100.00;100403.56;692232;28;1291;-65
2023/02/23 00:27:44;;;;;;;53.42;42.28;;;;;;;7.73;100.00;100397.50;691509;28;4482;-65
2023/02/23 00:28:06;;;;;;;52.03;41.70;;;;;;;7.72;100.00;100407.03;692637;28;1102;-65
2023/02/23 00:28:27;;;;;;;51.03;41.28;;;;;;;7.71;100.00;100404.44;692681;28;1317;-65
2023/02/23 00:28:49;;;;;;;52.03;41.27;;;;;;;7.71;100.00;100399.22;694213;28;1493;-65
2023/02/23 00:29:16;;;;;;;52.53;42.90;;;;;;;7.69;100.00;100398.38;692214;28;1161;-65
2023/02/23 00:29:39;;;;;;;50.85;42.22;;;;;;;7.70;100.00;100406.19;692184;28;1306;-65
2023/02/23 00:29:59;;;;;;;51.97;42.42;;;;;;;7.70;100.00;100398.38;693040;28;1336;-65
2023/02/23 00:30:20;;;;;;;51.40;41.75;;;;;;;7.72;100.00;100401.81;693772;28;856;-65
2023/02/23 00:30:45;;;;;;;53.92;42.58;;;;;;;7.72;100.00;100396.63;693565;28;4690;-64
2023/02/23 00:31:05;;;;;;;53.92;43.63;;;;;;;7.71;100.00;100400.09;690550;28;1263;-66
2023/02/23 00:31:26;;;;;;;52.43;42.87;;;;;;;7.72;100.00;100398.38;691727;28;1049;-65
2023/02/23 00:31:49;;;;;;;49.45;41.30;;;;;;;7.73;100.00;100402.72;691976;28;1153;-65
2023/02/23 00:32:09;;;;;;;51.90;41.50;;;;;;;7.72;100.00;100407.03;687319;28;1410;-65
2023/02/23 00:32:30;;;;;;;52.43;40.90;;;;;;;7.70;100.00;100400.97;685237;28;1284;-65
2023/02/23 00:32:51;;;;;;;51.47;40.97;;;;;;;7.69;100.00;100398.38;688390;28;1314;-65
2023/02/23 00:33:12;;;;;;;50.20;40.40;;;;;;;7.69;100.00;100399.22;689833;28;1108;-65
2023/02/23 00:33:34;;;;;;;49.83;40.42;;;;;;;7.67;100.00;100399.22;688789;28;1356;-65
2023/02/23 00:33:56;;;;;;;52.73;42.07;;;;;;;7.69;100.00;100401.81;689143;28;4374;-65
2023/02/23 00:34:22;;;;;;;49.70;41.03;;;;;;;7.72;100.00;100404.44;690324;28;1357;-65
2023/02/23 00:34:42;;;;;;;52.40;41.20;;;;;;;7.72;100.00;100404.44;689199;28;1238;-65
2023/02/23 00:35:03;;;;;;;49.65;40.55;;;;;;;7.72;100.00;100396.63;685871;28;1129;-65
2023/02/23 00:35:23;;;;;;;49.63;41.93;;;;;;;7.71;100.00;100405.28;685706;28;1827;-65
2023/02/23 00:35:44;;;;;;;50.20;40.50;;;;;;;7.72;100.00;100401.81;689393;28;1553;-65
2023/02/23 00:36:07;;;;;;;51.70;41.40;;;;;;;7.71;100.00;100397.47;686153;28;1390;-65
2023/02/23 00:36:30;;;;;;;50.63;41.38;;;;;;;7.71;100.00;100400.09;686011;28;1339;-65
2023/02/23 00:36:53;;;;;;;49.35;41.20;;;;;;;7.69;100.00;100396.63;684381;28;4425;-65
2023/02/23 00:37:15;;;;;;;50.85;42.08;;;;;;;7.69;100.00;100396.63;688823;28;1373;-65
2023/02/23 00:37:36;;;;;;;53.63;41.72;;;;;;;7.69;100.00;100394.03;687195;28;1255;-65
2023/02/23 00:37:57;;;;;;;51.75;42.60;;;;;;;7.69;100.00;100400.97;685034;28;1606;-65
2023/02/23 00:38:17;;;;;;;52.00;43.08;;;;;;;7.67;100.00;100393.16;687758;28;1454;-65
2023/02/23 00:38:39;;;;;;;54.50;42.90;;;;;;;7.67;100.00;100394.03;685602;28;1309;-65
2023/02/23 00:39:21;;;;;;;53.53;42.80;;;;;;;7.67;100.00;100393.16;687554;28;1132;-65
2023/02/23 00:39:41;;;;;;;55.95;44.00;;;;;;;7.66;100.00;100394.03;687444;28;4422;-65
2023/02/23 00:40:06;;;;;;;56.38;43.78;;;;;;;7.67;100.00;100399.22;690837;28;1107;-65
2023/02/23 00:40:27;;;;;;;53.35;43.67;;;;;;;7.66;100.00;100396.63;692560;28;1306;-65
2023/02/23 00:40:48;;;;;;;54.47;44.42;;;;;;;7.65;100.00;100394.88;691128;28;1278;-65
2023/02/23 00:41:11;;;;;;;55.15;43.90;;;;;;;7.65;100.00;100395.72;689867;28;1381;-65
2023/02/23 00:41:33;;;;;;;55.30;44.25;;;;;;;7.65;100.00;100393.13;685863;28;1283;-65
2023/02/23 00:41:55;;;;;;;56.90;44.28;;;;;;;7.64;100.00;100395.72;686737;28;4886;-65
2023/02/23 00:42:15;;;;;;;56.55;44.85;;;;;;;7.65;100.00;100389.66;686112;28;1922;-65
2023/02/23 00:42:35;;;;;;;55.70;44.42;;;;;;;7.65;100.00;100393.13;684224;28;1486;-65
2023/02/23 00:42:57;;;;;;;56.13;44.43;;;;;;;7.66;100.00;100391.41;683338;28;4329;-65
2023/02/23 00:43:18;;;;;;;55.95;45.03;;;;;;;7.66;100.00;100391.41;685999;28;1440;-66
2023/02/23 00:43:46;;;;;;;56.63;44.10;;;;;;;7.67;100.00;100393.16;686985;28;1378;-65
2023/02/23 00:44:06;;;;;;;55.38;43.38;;;;;;;7.66;100.00;100391.41;686635;28;1116;-65
2023/02/23 00:44:27;;;;;;;55.70;43.37;;;;;;;7.67;100.00;100390.56;689252;28;1240;-65
2023/02/23 00:44:48;;;;;;;52.50;41.90;;;;;;;7.69;100.00;100398.38;689919;28;1263;-65
2023/02/23 00:45:10;;;;;;;50.70;41.80;;;;;;;7.67;100.00;100391.41;691502;28;1384;-65
2023/02/23 00:45:30;;;;;;;52.50;41.55;;;;;;;7.67;100.00;100390.56;690742;28;1242;-65
2023/02/23 00:45:54;;;;;;;51.17;41.00;;;;;;;7.67;100.00;100387.97;688163;28;4407;-65
2023/02/23 00:46:17;;;;;;;52.25;42.00;;;;;;;7.67;100.00;100395.78;682907;28;1493;-65
2023/02/23 00:46:37;;;;;;;52.38;41.90;;;;;;;7.67;100.00;100394.03;684441;28;1402;-64
2023/02/23 00:46:58;;;;;;;52.63;41.47;;;;;;;7.69;100.00;100390.56;687995;28;999;-65
2023/02/23 00:47:18;;;;;;;50.40;40.80;;;;;;;7.68;100.00;100392.28;686760;28;780;-65
2023/02/23 00:47:41;;;;;;;51.10;41.63;;;;;;;7.66;100.00;100391.41;685736;28;1461;-65
2023/02/23 00:48:02;;;;;;;50.58;41.53;;;;;;;7.65;100.00;100387.94;685319;28;1220;-65
2023/02/23 00:48:23;;;;;;;51.00;41.85;;;;;;;7.66;100.00;100387.06;688976;28;1309;-65
2023/02/23 00:48:44;;;;;;;51.83;42.23;;;;;;;7.66;100.00;100386.22;685122;28;4462;-65
2023/02/23 00:49:05;;;;;;;52.42;41.70;;;;;;;7.66;100.00;100388.81;684841;28;1510;-64
2023/02/23 00:49:26;;;;;;;55.63;43.00;;;;;;;7.65;100.00;100385.31;686341;28;1086;-64
2023/02/23 00:49:46;;;;;;;55.53;43.13;;;;;;;7.65;100.00;100385.31;688511;28;914;-65
2023/02/23 00:50:12;;;;;;;57.17;43.67;;;;;;;7.67;100.00;100393.16;687976;28;1141;-65
2023/02/23 00:50:33;;;;;;;55.63;44.13;;;;;;;7.68;100.00;100394.88;689010;28;880;-65
2023/02/23 00:51:03;;;;;;;53.97;42.65;;;;;;;7.67;100.00;100387.97;691057;28;996;-65
2023/02/23 00:51:26;;;;;;;55.80;42.88;;;;;;;7.66;100.00;100381.88;690831;28;1129;-65
2023/02/23 00:51:47;;;;;;;52.45;42.10;;;;;;;7.66;100.00;100387.06;687374;28;5255;-65
2023/02/23 00:52:07;;;;;;;51.45;41.92;;;;;;;7.64;100.00;100390.53;688154;28;897;-65
2023/02/23 00:52:28;;;;;;;48.50;40.30;;;;;;;7.65;100.00;100387.06;688746;28;1188;-64
2023/02/23 00:52:48;;;;;;;49.33;40.53;;;;;;;7.65;100.00;100389.66;686037;28;988;-65
2023/02/23 00:53:08;;;;;;;50.20;40.73;;;;;;;7.67;100.00;100387.97;686436;28;1176;-65
2023/02/23 00:53:29;;;;;;;50.23;41.27;;;;;;;7.67;100.00;100386.22;686016;28;1408;-65
2023/02/23 00:53:53;;;;;;;50.60;40.88;;;;;;;7.67;100.00;100387.97;683120;28;1151;-65
2023/02/23 00:54:15;;;;;;;50.33;40.95;;;;;;;7.64;100.00;100386.22;681947;28;884;-65
2023/02/23 00:54:35;;;;;;;51.08;41.63;;;;;;;7.64;100.00;100390.53;683827;28;1406;-65
2023/02/23 00:54:55;;;;;;;53.92;43.25;;;;;;;7.64;100.00;100383.63;684858;28;4360;-65
2023/02/23 00:55:16;;;;;;;55.13;43.73;;;;;;;7.64;100.00;100387.94;691170;28;1213;-65
2023/02/23 00:55:40;;;;;;;54.05;43.28;;;;;;;7.64;100.00;100387.94;687888;28;1180;-65
2023/02/23 00:56:03;;;;;;;54.33;42.88;;;;;;;7.63;100.00;100387.06;687360;28;1648;-65
2023/02/23 00:56:24;;;;;;;56.08;43.38;;;;;;;7.64;100.00;100390.53;687105;28;1241;-65
2023/02/23 00:56:45;;;;;;;56.00;43.85;;;;;;;7.63;100.00;100387.06;685793;28;937;-65
2023/02/23 00:57:06;;;;;;;56.13;44.70;;;;;;;7.64;100.00;100382.72;687095;28;1227;-65
2023/02/23 00:57:27;;;;;;;55.53;44.88;;;;;;;7.64;100.00;100383.63;687084;28;1417;-65
2023/02/23 00:57:47;;;;;;;57.00;44.20;;;;;;;7.66;100.00;100386.22;685369;28;4451;-65
2023/02/23 00:58:08;;;;;;;56.10;43.70;;;;;;;7.66;100.00;100388.81;685148;28;1366;-65
2023/02/23 00:58:30;;;;;;;55.53;43.40;;;;;;;7.67;100.00;100382.75;684695;28;1247;-65
2023/02/23 00:58:50;;;;;;;54.00;43.58;;;;;;;7.67;100.00;100387.97;683273;28;789;-65
2023/02/23 00:59:12;;;;;;;53.92;42.83;;;;;;;7.69;100.00;100387.97;683695;28;937;-65
2023/02/23 00:59:35;;;;;;;53.47;43.15;;;;;;;7.68;100.00;100387.06;686835;28;861;-65
2023/02/23 00:59:56;;;;;;;52.45;42.25;;;;;;;7.67;100.00;100380.16;687545;28;1299;-65
2023/02/23 01:00:19;;;;;;;53.80;42.88;;;;;;;7.67;100.00;100385.34;686878;28;1537;-65
2023/02/23 01:00:41;;;;;;;52.17;41.40;;;;;;;7.66;100.00;100386.22;689289;28;4606;-65
2023/02/23 01:01:03;;;;;;;50.75;40.88;;;;;;;7.66;100.00;100391.41;687588;28;1212;-65
2023/02/23 01:01:24;;;;;;;48.65;40.25;;;;;;;7.65;100.00;100389.66;686587;28;1063;-64
2023/02/23 01:01:45;;;;;;;49.88;40.80;;;;;;;7.65;100.00;100395.72;687128;28;1110;-65
2023/02/23 01:02:05;;;;;;;50.00;40.40;;;;;;;7.64;100.00;100388.81;689820;28;1923;-65
2023/02/23 01:02:29;;;;;;;51.70;41.83;;;;;;;7.64;100.00;100378.41;688640;28;1260;-65
2023/02/23 01:02:50;;;;;;;52.45;41.90;;;;;;;7.64;100.00;100387.94;689638;28;808;-65
2023/02/23 01:03:10;;;;;;;53.17;42.95;;;;;;;7.63;100.00;100387.06;690675;28;929;-65
2023/02/23 01:03:31;;;;;;;54.40;42.83;;;;;;;7.64;100.00;100390.53;690724;28;860;-65
2023/02/23 01:03:54;;;;;;;53.97;42.45;;;;;;;7.65;100.00;100384.47;689984;28;4373;-65
2023/02/23 01:04:15;;;;;;;56.92;44.05;;;;;;;7.67;100.00;100390.56;686137;28;849;-65
2023/02/23 01:04:35;;;;;;;56.78;44.17;;;;;;;7.67;100.00;100387.97;686167;28;2020;-65
2023/02/23 01:04:56;;;;;;;55.53;43.47;;;;;;;7.69;100.00;100386.22;690887;28;1064;-65
2023/02/23 01:05:19;;;;;;;56.17;44.17;;;;;;;7.70;100.00;100387.06;690180;28;1023;-65
2023/02/23 01:05:42;;;;;;;55.33;43.28;;;;;;;7.71;100.00;100383.63;685111;28;2056;-65
2023/02/23 01:06:05;;;;;;;54.42;43.92;;;;;;;7.69;100.00;100391.41;687518;28;1046;-65
2023/02/23 01:06:25;;;;;;;54.28;43.42;;;;;;;7.67;100.00;100385.34;691525;28;1074;-67
2023/02/23 01:06:45;;;;;;;53.00;42.58;;;;;;;7.65;100.00;100387.06;690583;28;4449;-65
2023/02/23 01:07:06;;;;;;;54.37;43.43;;;;;;;7.65;100.00;100385.31;690049;28;1344;-65
2023/02/23 01:07:26;;;;;;;54.50;42.95;;;;;;;7.65;100.00;100394.88;689209;28;1322;-64
2023/02/23 01:07:48;;;;;;;52.63;42.13;;;;;;;7.65;100.00;100392.28;688265;28;741;-65
2023/02/23 01:08:09;;;;;;;54.92;43.88;;;;;;;7.65;100.00;100394.88;686931;28;979;-65
2023/02/23 01:08:31;;;;;;;54.05;43.10;;;;;;;7.66;100.00;100388.81;686297;28;1303;-65
2023/02/23 01:08:55;;;;;;;53.13;41.72;;;;;;;7.67;100.00;100393.16;687470;28;1611;-65
2023/02/23 01:09:26;;;;;;;51.97;41.17;;;;;;;7.66;100.00;100392.28;686932;28;1920;-65
2023/02/23 01:09:47;;;;;;;51.90;41.83;;;;;;;7.67;100.00;100387.97;685485;28;4373;-65
2023/02/23 01:10:18;;;;;;;50.42;41.50;;;;;;;7.66;100.00;100386.22;689404;28;1155;-65
2023/02/23 01:10:41;;;;;;;51.05;41.70;;;;;;;7.66;100.00;100396.63;688947;28;1047;-65
2023/02/23 01:11:14;;;;;;;51.08;41.90;;;;;;;7.65;100.00;100393.13;691154;28;1407;-65
2023/02/23 01:11:34;;;;;;;53.90;43.00;;;;;;;7.64;100.00;100387.94;691562;28;1317;-65
2023/02/23 01:11:55;;;;;;;53.57;42.73;;;;;;;7.65;100.00;100393.13;690635;28;1158;-65
2023/02/23 01:12:16;;;;;;;55.35;43.22;;;;;;;7.67;100.00;100387.97;691288;28;1481;-64
2023/02/23 01:12:37;;;;;;;55.47;43.75;;;;;;;7.66;100.00;100391.41;691674;28;4443;-65
2023/02/23 01:12:57;;;;;;;55.38;43.92;;;;;;;7.66;100.00;100389.69;690320;28;1053;-65
2023/02/23 01:13:23;;;;;;;57.53;43.73;;;;;;;7.70;100.00;100389.69;691944;28;1163;-65
2023/02/23 01:13:45;;;;;;;56.20;44.33;;;;;;;7.69;100.00;100390.56;692166;28;1232;-65
2023/02/23 01:14:07;;;;;;;52.25;43.00;;;;;;;7.67;100.00;100394.03;692265;28;964;-65
2023/02/23 01:14:27;;;;;;;53.80;43.05;;;;;;;7.66;100.00;100391.41;691915;28;1022;-65
2023/02/23 01:14:48;;;;;;;54.83;43.20;;;;;;;7.67;100.00;100394.03;693650;28;861;-65
2023/02/23 01:15:10;;;;;;;54.58;43.22;;;;;;;7.67;100.00;100387.97;688260;28;1362;-65
2023/02/23 01:15:31;;;;;;;54.25;42.83;;;;;;;7.63;100.00;100387.06;686821;28;1558;-65
2023/02/23 01:15:53;;;;;;;53.58;43.35;;;;;;;7.64;100.00;100387.94;686010;28;4359;-65
2023/02/23 01:16:17;;;;;;;51.55;43.35;;;;;;;7.66;100.00;100386.22;686808;28;1367;-65
2023/02/23 01:16:37;;;;;;;53.60;43.08;;;;;;;7.67;100.00;100387.97;686013;28;892;-65
2023/02/23 01:16:58;;;;;;;53.22;42.22;;;;;;;7.69;100.00;100388.81;689073;28;970;-65
2023/02/23 01:17:21;;;;;;;52.58;42.45;;;;;;;7.71;100.00;100394.03;688800;28;1010;-65
2023/02/23 01:17:41;;;;;;;53.90;42.70;;;;;;;7.71;100.00;100389.69;691518;28;1262;-65
2023/02/23 01:18:04;;;;;;;53.05;42.00;;;;;;;7.73;100.00;100387.97;689085;28;1265;-65
2023/02/23 01:18:24;;;;;;;51.83;41.53;;;;;;;7.72;100.00;100388.81;686772;28;1249;-65
2023/02/23 01:18:45;;;;;;;50.33;41.50;;;;;;;7.71;100.00;100388.81;686931;28;4512;-65
2023/02/23 01:19:05;;;;;;;50.92;41.83;;;;;;;7.69;100.00;100388.81;686502;28;898;-64
2023/02/23 01:19:27;;;;;;;50.97;41.63;;;;;;;7.66;100.00;100384.47;689189;28;3990;-65
2023/02/23 01:19:49;;;;;;;52.97;42.28;;;;;;;7.69;100.00;100383.63;689194;28;824;-65
2023/02/23 01:20:18;;;;;;;51.45;41.47;;;;;;;7.71;100.00;100386.22;690563;28;990;-64
2023/02/23 01:20:40;;;;;;;52.85;42.72;;;;;;;7.72;100.00;100380.16;694963;28;1263;-64
2023/02/23 01:21:04;;;;;;;54.25;43.15;;;;;;;7.70;100.00;100387.97;691945;28;901;-65
2023/02/23 01:21:28;;;;;;;54.95;43.50;;;;;;;7.66;100.00;100386.22;692685;28;942;-64
2023/02/23 01:21:49;;;;;;;52.83;41.92;;;;;;;7.64;100.00;100378.41;687363;28;4294;-65
2023/02/23 01:22:11;;;;;;;54.15;43.22;;;;;;;7.63;100.00;100381.00;689254;28;1970;-65
2023/02/23 01:22:33;;;;;;;56.75;43.45;;;;;;;7.62;100.00;100385.31;685765;28;1420;-65
2023/02/23 01:22:53;;;;;;;54.93;42.83;;;;;;;7.63;100.00;100381.00;684016;28;1269;-65
2023/02/23 01:23:14;;;;;;;56.20;44.20;;;;;;;7.63;100.00;100381.00;687729;28;837;-65
2023/02/23 01:23:35;;;;;;;56.22;44.22;;;;;;;7.62;100.00;100389.66;686562;28;960;-65
2023/02/23 01:23:56;;;;;;;55.80;43.00;;;;;;;7.61;100.00;100383.59;686634;28;1441;-64
2023/02/23 01:24:17;;;;;;;52.80;42.80;;;;;;;7.61;100.00;100378.38;686172;28;979;-65
2023/02/23 01:24:38;;;;;;;55.03;42.80;;;;;;;7.61;100.00;100377.53;689130;28;4342;-65
2023/02/23 01:24:58;;;;;;;54.15;42.65;;;;;;;7.62;100.00;100384.47;692648;28;1119;-65
2023/02/23 01:25:18;;;;;;;54.28;43.80;;;;;;;7.60;100.00;100376.66;690143;28;1288;-65
2023/02/23 01:25:41;;;;;;;54.03;43.40;;;;;;;7.62;100.00;100385.31;689999;28;852;-65
2023/02/23 01:26:02;;;;;;;53.80;43.22;;;;;;;7.62;100.00;100381.88;688445;28;2091;-65
2023/02/23 01:26:27;;;;;;;54.28;43.08;;;;;;;7.63;100.00;100381.00;688720;28;984;-65
2023/02/23 01:26:48;;;;;;;54.65;42.72;;;;;;;7.63;100.00;100383.63;686923;28;1266;-65
2023/02/23 01:27:08;;;;;;;55.70;44.35;;;;;;;7.64;100.00;100385.31;683591;28;1236;-65
2023/02/23 01:27:28;;;;;;;57.17;44.00;;;;;;;7.63;100.00;100379.25;685038;28;1188;-64
2023/02/23 01:27:49;;;;;;;55.03;42.90;;;;;;;7.64;100.00;100385.31;686665;28;4331;-65
2023/02/23 01:28:10;;;;;;;56.97;43.20;;;;;;;7.64;100.00;100380.13;689983;28;1031;-65
2023/02/23 01:28:31;;;;;;;57.50;43.65;;;;;;;7.64;100.00;100381.00;688604;28;1232;-65
2023/02/23 01:29:00;;;;;;;55.08;43.17;;;;;;;7.64;100.00;100386.22;685959;28;1686;-65
2023/02/23 01:29:20;;;;;;;55.45;44.00;;;;;;;7.64;100.00;100385.31;685786;28;917;-65
2023/02/23 01:29:41;;;;;;;53.70;43.67;;;;;;;7.64;100.00;100382.72;686767;28;1004;-65
2023/02/23 01:30:01;;;;;;;52.63;42.60;;;;;;;7.63;100.00;100386.22;688692;28;1164;-65
2023/02/23 01:30:22;;;;;;;53.00;41.97;;;;;;;7.63;100.00;100383.63;689476;28;908;-64
2023/02/23 01:30:42;;;;;;;53.83;42.77;;;;;;;7.62;100.00;100382.72;690047;28;4316;-65
2023/02/23 01:31:07;;;;;;;52.35;42.50;;;;;;;7.62;100.00;100384.47;693588;28;968;-65
2023/02/23 01:31:30;;;;;;;55.22;43.10;;;;;;;7.63;100.00;100387.06;686604;28;1203;-64
2023/02/23 01:31:50;;;;;;;54.37;43.40;;;;;;;7.63;100.00;100374.06;689325;28;845;-64
2023/02/23 01:32:11;;;;;;;56.67;43.88;;;;;;;7.62;100.00;100390.53;688607;28;1457;-65
2023/02/23 01:32:34;;;;;;;54.97;42.53;;;;;;;7.63;100.00;100381.88;686339;28;1229;-65
2023/02/23 01:32:54;;;;;;;57.38;44.22;;;;;;;7.62;100.00;100387.06;686093;28;1077;-65
2023/02/23 01:33:15;;;;;;;58.05;45.42;;;;;;;7.60;100.00;100380.97;686476;28;1264;-65
2023/02/23 01:33:37;;;;;;;58.63;44.95;;;;;;;7.60;100.00;100381.88;684885;28;4387;-64
2023/02/23 01:33:59;;;;;;;56.70;44.42;;;;;;;7.60;100.00;100386.19;686166;28;1343;-65
2023/02/23 01:34:22;;;;;;;58.22;44.78;;;;;;;7.59;100.00;100381.88;686211;28;2138;-65
2023/02/23 01:34:44;;;;;;;57.97;44.45;;;;;;;7.59;100.00;100379.25;685381;28;1535;-64
2023/02/23 01:35:08;;;;;;;57.88;44.67;;;;;;;7.59;100.00;100389.66;682164;28;1593;-64
2023/02/23 01:35:29;;;;;;;56.97;44.38;;;;;;;7.60;100.00;100383.59;682042;28;1309;-64
2023/02/23 01:35:58;;;;;;;55.70;44.33;;;;;;;7.59;100.00;100379.25;685695;28;1214;-65
2023/02/23 01:36:19;;;;;;;55.25;44.53;;;;;;;7.60;100.00;100380.97;682062;28;952;-65
2023/02/23 01:36:41;;;;;;;55.13;43.40;;;;;;;7.60;100.00;100389.66;686432;28;4444;-64
2023/02/23 01:37:02;;;;;;;58.08;44.20;;;;;;;7.60;100.00;100381.88;687817;28;1014;-64
2023/02/23 01:37:22;;;;;;;56.30;44.78;;;;;;;7.60;100.00;100383.59;685100;28;1332;-64
2023/02/23 01:37:44;;;;;;;55.60;44.03;;;;;;;7.60;100.00;100381.88;688099;28;842;-65
2023/02/23 01:38:05;;;;;;;55.80;44.37;;;;;;;7.61;100.00;100377.53;688444;28;1096;-65
2023/02/23 01:38:25;;;;;;;55.97;44.22;;;;;;;7.60;100.00;100378.38;688734;28;832;-64
2023/02/23 01:38:46;;;;;;;56.83;43.73;;;;;;;7.61;100.00;100377.53;689587;28;1083;-65
2023/02/23 01:39:10;;;;;;;53.13;42.13;;;;;;;7.61;100.00;100378.38;688141;28;1495;-64
2023/02/23 01:39:31;;;;;;;50.97;41.63;;;;;;;7.62;100.00;100384.47;688511;28;889;-64
2023/02/23 01:39:52;;;;;;;53.72;42.72;;;;;;;7.60;100.00;100378.38;687698;28;4254;-64
2023/02/23 01:40:27;;;;;;;56.23;43.00;;;;;;;7.58;100.00;100378.38;688983;28;1200;-65
2023/02/23 01:40:48;;;;;;;54.95;43.30;;;;;;;7.59;100.00;100379.25;689641;28;871;-62
2023/02/23 01:41:08;;;;;;;56.13;43.43;;;;;;;7.60;100.00;100381.88;685747;28;2103;-64
2023/02/23 01:41:31;;;;;;;57.70;43.90;;;;;;;7.63;100.00;100378.41;688495;28;1037;-64
2023/02/23 01:41:53;;;;;;;55.42;43.50;;;;;;;7.63;100.00;100378.41;685882;28;5279;-65
2023/02/23 01:42:16;;;;;;;54.03;44.22;;;;;;;7.64;100.00;100377.53;686242;28;2020;-65
2023/02/23 01:42:40;;;;;;;54.08;43.80;;;;;;;7.64;100.00;100378.41;686114;28;4496;-64
2023/02/23 01:43:19;;;;;;;53.63;42.28;;;;;;;7.62;100.00;100377.53;689366;28;912;-64
2023/02/23 01:43:57;;;;;;;51.92;41.85;;;;;;;7.60;100.00;100380.97;689746;28;829;-65